地図

経路データ

SID SEASON NUMBER BASIN SUBBASIN NAME ISO_TIME NATURE LAT LON WMO_WIND WMO_PRES WMO_AGENCY TRACK_TYPE DIST2LAND LANDFALL IFLAG USA_AGENCY USA_ATCF_ID USA_LAT USA_LON USA_RECORD USA_STATUS USA_WIND USA_PRES USA_SSHS USA_R34_NE USA_R34_SE USA_R34_SW USA_R34_NW USA_R50_NE USA_R50_SE USA_R50_SW USA_R50_NW USA_R64_NE USA_R64_SE USA_R64_SW USA_R64_NW USA_POCI USA_ROCI USA_RMW USA_EYE TOKYO_LAT TOKYO_LON TOKYO_GRADE TOKYO_WIND TOKYO_PRES TOKYO_R50_DIR TOKYO_R50_LONG TOKYO_R50_SHORT TOKYO_R30_DIR TOKYO_R30_LONG TOKYO_R30_SHORT TOKYO_LAND CMA_LAT CMA_LON CMA_CAT CMA_WIND CMA_PRES HKO_LAT HKO_LON HKO_CAT HKO_WIND HKO_PRES NEWDELHI_LAT NEWDELHI_LON NEWDELHI_GRADE NEWDELHI_WIND NEWDELHI_PRES NEWDELHI_CI NEWDELHI_DP NEWDELHI_POCI REUNION_LAT REUNION_LON REUNION_TYPE REUNION_WIND REUNION_PRES REUNION_TNUM REUNION_CI REUNION_RMW REUNION_R34_NE REUNION_R34_SE REUNION_R34_SW REUNION_R34_NW REUNION_R50_NE REUNION_R50_SE REUNION_R50_SW REUNION_R50_NW REUNION_R64_NE REUNION_R64_SE REUNION_R64_SW REUNION_R64_NW BOM_LAT BOM_LON BOM_TYPE BOM_WIND BOM_PRES BOM_TNUM BOM_CI BOM_RMW BOM_R34_NE BOM_R34_SE BOM_R34_SW BOM_R34_NW BOM_R50_NE BOM_R50_SE BOM_R50_SW BOM_R50_NW BOM_R64_NE BOM_R64_SE BOM_R64_SW BOM_R64_NW BOM_ROCI BOM_POCI BOM_EYE BOM_POS_METHOD BOM_PRES_METHOD NADI_LAT NADI_LON NADI_CAT NADI_WIND NADI_PRES WELLINGTON_LAT WELLINGTON_LON WELLINGTON_WIND WELLINGTON_PRES DS824_LAT DS824_LON DS824_STAGE DS824_WIND DS824_PRES TD9636_LAT TD9636_LON TD9636_STAGE TD9636_WIND TD9636_PRES TD9635_LAT TD9635_LON TD9635_WIND TD9635_PRES TD9635_ROCI NEUMANN_LAT NEUMANN_LON NEUMANN_CLASS NEUMANN_WIND NEUMANN_PRES MLC_LAT MLC_LON MLC_CLASS MLC_WIND MLC_PRES USA_GUST BOM_GUST BOM_GUST_PER REUNION_GUST REUNION_GUST_PER USA_SEAHGT USA_SEARAD_NE USA_SEARAD_SE USA_SEARAD_SW USA_SEARAD_NW STORM_SPEED STORM_DIR
1971240N11113 1971 99 WP MM NOT_NAMED 1971-08-28 06:00:00 TS 10.7000 112.500 main 374 370 __O___________ -1 10.7000 112.500 1 29 1006 11 24
1971240N11113 1971 99 WP MM NOT_NAMED 1971-08-28 09:00:00 TS 11.1800 112.717 main 378 378 __P___________ -1 11.1800 112.717 1 29 1006 10 29
1971240N11113 1971 99 WP MM NOT_NAMED 1971-08-28 12:00:00 TS 11.6000 113.000 main 396 396 __O___________ -1 11.6000 113.000 1 29 1006 10 41
1971240N11113 1971 99 WP MM NOT_NAMED 1971-08-28 15:00:00 TS 11.9226 113.385 main 431 429 __P___________ -1 11.9226 113.385 1 29 1005 10 53
1971240N11113 1971 99 WP MM NOT_NAMED 1971-08-28 18:00:00 TS 12.2000 113.800 main 469 469 __O___________ -1 12.2000 113.800 1 29 1005 9 51
1971240N11113 1971 99 WP MM NOT_NAMED 1971-08-28 21:00:00 TS 12.5148 114.128 main 499 499 __P___________ -1 12.5148 114.128 1 29 1004 9 49
1971240N11113 1971 99 WP MM NOT_NAMED 1971-08-29 00:00:00 TS 12.8000 114.500 main 540 519 __O___________ -1 12.8000 114.500 1 29 1004 10 63
1971240N11113 1971 99 WP MM NOT_NAMED 1971-08-29 03:00:00 TS 12.9777 115.043 main 519 470 __P___________ -1 12.9777 115.043 1 29 1003 11 70
1971240N11113 1971 99 WP MM NOT_NAMED 1971-08-29 06:00:00 TS 13.2000 115.600 main 470 448 __O___________ -1 13.2000 115.600 1 29 1002 12 59
1971240N11113 1971 99 WP MM NOT_NAMED 1971-08-29 09:00:00 TS 13.6050 116.112 main 448 403 __P___________ -1 13.6050 116.112 1 29 1002 12 41
1971240N11113 1971 99 WP MM NOT_NAMED 1971-08-29 12:00:00 TS 14.1000 116.400 main 403 386 __O___________ -1 14.1000 116.400 1 29 1002 10 12
1971240N11113 1971 99 WP MM NOT_NAMED 1971-08-29 15:00:00 TS 14.6148 116.335 main 397 388 __P___________ -1 14.6148 116.335 1 29 1002 11 339
1971240N11113 1971 99 WP MM NOT_NAMED 1971-08-29 18:00:00 TS 15.1000 116.000 main 409 406 __O___________ -1 15.1000 116.000 1 29 1002 11 320
1971240N11113 1971 99 WP MM NOT_NAMED 1971-08-29 21:00:00 TS 15.4799 115.575 main 442 442 __P___________ -1 15.4799 115.575 1 29 1002 16 290
1971240N11113 1971 99 WP MM NOT_NAMED 1971-08-30 00:00:00 TS 15.6400 114.420 main 547 462 __OO__________ -1 15.8000 115.000 1 29 1002 15.0000 112.100 TD 25 1002 20 284
1971240N11113 1971 99 WP MM NOT_NAMED 1971-08-30 03:00:00 TS 15.9410 113.593 main 462 392 __PP__________ -1 16.1378 114.300 1 26 1002 15.5475 112.177 TD 25 1002 15 293
1971240N11113 1971 99 WP MM NOT_NAMED 1971-08-30 06:00:00 TS 16.2286 113.000 main 392 347 __OO__________ -1 16.4000 113.600 1 23 1003 16.0000 112.200 TD 25 1003 11 296
1971240N11113 1971 99 WP MM NOT_NAMED 1971-08-30 09:00:00 TS 16.4011 112.592 main 347 318 __PP__________ -1 16.5072 113.055 1 23 1003 16.2950 112.130 TD 25 1003 7 296
1971240N11113 1971 99 WP MM NOT_NAMED 1971-08-30 12:00:00 TS 16.5500 112.300 main 309 271 __OO__________ -1 16.6000 112.600 1 23 1003 16.5000 112.000 TD 25 1004 7 303
1971240N11113 1971 99 WP MM NOT_NAMED 1971-08-30 15:00:00 TS 16.7637 112.010 main 271 241 __PP__________ -1 16.8275 112.148 1 23 1003 16.7000 111.872 TD 25 1004 7 311
1971240N11113 1971 99 WP MM NOT_NAMED 1971-08-30 18:00:00 TS 17.0000 111.750 main 241 210 __OO__________ -1 17.1000 111.800 1 23 1004 16.9000 111.700 TD 25 1005 6 318
1971240N11113 1971 99 WP MM NOT_NAMED 1971-08-30 21:00:00 TS 17.2424 111.557 main 210 170 __PP__________ -1 17.3573 111.642 1 23 1004 17.1275 111.472 TD 25 1005 6 325
1971240N11113 1971 99 WP MM NOT_NAMED 1971-08-31 00:00:00 TS 17.5143 111.371 main 170 124 __OO__________ -1 17.6000 111.500 1 23 1004 17.4000 111.200 TD 25 1006 7 323
1971240N11113 1971 99 WP MM NOT_NAMED 1971-08-31 03:00:00 TS 17.8225 111.104 main 124 88 __PP__________ -1 17.8674 111.203 1 23 1004 17.7326 110.905 TD 25 1006 8 311
1971240N11113 1971 99 WP MM NOT_NAMED 1971-08-31 06:00:00 TS 18.0200 110.760 main 88 76 __OO__________ -1 18.0000 110.800 1 23 1005 18.1000 110.600 TD 25 1006 7 268
1971240N11113 1971 99 WP MM NOT_NAMED 1971-08-31 09:00:00 TS 17.7922 110.359 main 79 67 __P___________ -1 17.7922 110.359 1 21 1005 TD 10 245
1971240N11113 1971 99 WP MM NOT_NAMED 1971-08-31 12:00:00 TS 17.6000 109.800 main 67 59 __O___________ -1 17.6000 109.800 0 19 1005 12 267
1971240N11113 1971 99 WP MM NOT_NAMED 1971-08-31 15:00:00 TS 17.7305 109.050 main 70 59 __P___________ -1 17.7305 109.050 0 19 1005 15 289
1971240N11113 1971 99 WP MM NOT_NAMED 1971-08-31 18:00:00 TS 18.1000 108.300 main 61 61 __O___________ -1 18.1000 108.300 0 19 1006 16 306
1971240N11113 1971 99 WP MM NOT_NAMED 1971-08-31 21:00:00 TS 18.6473 107.718 main 105 105 __P___________ -1 18.6473 107.718 0 19 1006 15 322
1971240N11113 1971 99 WP MM NOT_NAMED 1971-09-01 00:00:00 TS 19.3000 107.300 main 130 68 __O___________ -1 19.3000 107.300 0 19 1007 14 334
1971240N11113 1971 99 WP MM NOT_NAMED 1971-09-01 03:00:00 TS 19.9175 107.052 main 68 24 __P___________ -1 19.9175 107.052 0 19 1007 13 343
1971240N11113 1971 99 WP MM NOT_NAMED 1971-09-01 06:00:00 TS 20.5000 106.900 main 24 __O___________ -1 20.5000 106.900 0 19 1007 12 346

デジタル台風データ・検索

IBTrACS Databaseについて

本データベースは、米国NOAAが公開する1842年以降の世界の熱帯低気圧のベストトラックデータアーカイブInternational Best Track Archive for Climate Stewardship (IBTrACS)を、ウェブで閲覧しやすい形式に変換したものです。

最終更新日:2021-11-26